»·PEaware :: N512HM KSMF-KFAT

N512HM :: KSMF-KFAT

FLIGHT INFORMATION

Flight Status: Arrived
Operator: Privately registered:
United States
More flights under this callsign
Pilot: Steven M. (455)
Aircraft: SOCATA TBM-900
(TBM9)
More flights by this aircraft type
Origin: KSMF Sacramento Intl
United States
Destination: KFAT Fresno Yosemite Intl
United States
More flights between these airports :: More routes between these airports
Route: +FTHIL2 FRA
File this flight plan on PilotEdge
Remarks:
Altitude:
(Current/Filed)
17,000ft
Speed:
(Current/Filed)
282kts
Departed: 25-Feb-19 03:50 PM
Arrived: 25-Feb-19 04:37 PM
Distance/Time
Traveled:
145nm/0:47
Distance/Time
To Go:
Arrived

Flight Plot

Page will automatically refresh every two minutes.

Flight plan parsing failed; only flown route is shown


Map Options




Map Legend


Flown Route
Filed Route
Departure Airport
Arrival Airport
Navaid (VOR, NDB)
Fix

Horizontal Profiles

Position Reports

Time Latitude Longitude Heading Altitude Ground
Speed
25-Feb-19 15:28 38.681190 -121.597008 269 23ft 0kts
25-Feb-19 15:29 38.681191 -121.597008 269 23ft 0kts
25-Feb-19 15:30 38.681190 -121.597008 269 23ft 0kts
25-Feb-19 15:31 38.681190 -121.597008 269 23ft 0kts
25-Feb-19 15:32 38.681190 -121.597008 269 23ft 0kts
25-Feb-19 15:33 38.681191 -121.597008 269 23ft 0kts
25-Feb-19 15:34 38.681190 -121.597008 269 23ft 0kts
25-Feb-19 15:35 38.681190 -121.597008 269 23ft 0kts
25-Feb-19 15:36 38.681190 -121.597008 269 23ft 0kts
25-Feb-19 15:37 38.681190 -121.597008 269 23ft 0kts
25-Feb-19 15:38 38.681190 -121.597008 269 23ft 0kts
25-Feb-19 15:39 38.681190 -121.597008 269 23ft 0kts
25-Feb-19 15:40 38.681940 -121.598891 354 23ft 11kts
25-Feb-19 15:41 38.686003 -121.598824 1 24ft 14kts
25-Feb-19 15:42 38.689543 -121.598773 3 23ft 10kts
25-Feb-19 15:43 38.692634 -121.598726 1 23ft 18kts
25-Feb-19 15:44 38.696391 -121.598649 0 23ft 8kts
25-Feb-19 15:45 38.697029 -121.599844 269 23ft 0kts
25-Feb-19 15:46 38.697029 -121.599844 269 23ft 0kts
25-Feb-19 15:47 38.697029 -121.599844 269 23ft 0kts
25-Feb-19 15:48 38.697029 -121.599902 269 24ft 2kts
25-Feb-19 15:49 38.686785 -121.601546 178 271ft 115kts
25-Feb-19 15:50 38.662068 -121.575860 129 2740ft 130kts
25-Feb-19 15:51 38.643548 -121.540106 132 5007ft 132kts
25-Feb-19 15:52 38.626793 -121.507540 134 6841ft 142kts
25-Feb-19 15:53 38.605580 -121.466271 135 9330ft 153kts
25-Feb-19 15:54 38.582696 -121.421816 138 11609ft 164kts
25-Feb-19 15:55 38.557032 -121.372176 137 13712ft 177kts
25-Feb-19 15:56 38.533942 -121.327436 136 15294ft 187kts
25-Feb-19 15:57 38.502636 -121.267030 133 17021ft 218kts
25-Feb-19 15:58 38.461976 -121.188452 130 17017ft 292kts
25-Feb-19 15:59 38.419486 -121.106609 130 17008ft 307kts
25-Feb-19 16:00 38.375006 -121.021207 130 17014ft 310kts
25-Feb-19 16:01 38.331525 -120.937910 130 17342ft 300kts
25-Feb-19 16:02 38.286139 -120.851226 131 18502ft 284kts
25-Feb-19 16:03 38.241316 -120.765859 131 19721ft 278kts
25-Feb-19 16:04 38.198685 -120.684896 131 20916ft 283kts
25-Feb-19 16:05 38.154388 -120.601006 130 21077ft 316kts
25-Feb-19 16:06 38.108131 -120.513514 130 21070ft 327kts
25-Feb-19 16:07 38.056587 -120.416648 131 21069ft 330kts
25-Feb-19 16:08 38.005599 -120.324793 132 21058ft 330kts
25-Feb-19 16:09 37.954539 -120.232995 133 21059ft 326kts
25-Feb-19 16:10 37.888636 -120.173986 159 21045ft 301kts
25-Feb-19 16:11 37.821937 -120.124281 159 21046ft 301kts
25-Feb-19 16:12 37.761871 -120.079572 159 20869ft 306kts
25-Feb-19 16:13 37.699417 -120.033142 158 19702ft 312kts
25-Feb-19 16:14 37.637673 -119.987337 158 18555ft 311kts
25-Feb-19 16:15 37.573880 -119.940120 158 17377ft 310kts
25-Feb-19 16:16 37.506319 -119.890212 157 16130ft 306kts
25-Feb-19 16:17 37.434911 -119.837575 157 14635ft 307kts
25-Feb-19 16:18 37.361824 -119.783750 157 13209ft 268kts
25-Feb-19 16:19 37.294541 -119.734428 157 12026ft 256kts
25-Feb-19 16:20 37.231063 -119.687974 155 10879ft 253kts
25-Feb-19 16:21 37.167826 -119.641804 150 9775ft 252kts
25-Feb-19 16:22 37.105986 -119.611145 203 8969ft 234kts
25-Feb-19 16:23 37.070093 -119.682269 241 7709ft 252kts
25-Feb-19 16:24 37.039168 -119.760352 241 6381ft 255kts
25-Feb-19 16:25 37.008991 -119.836274 242 5092ft 243kts
25-Feb-19 16:26 36.962334 -119.882834 207 4191ft 216kts
25-Feb-19 16:27 36.911274 -119.915338 206 2397ft 200kts
25-Feb-19 16:28 36.877919 -119.898772 129 2026ft 142kts
25-Feb-19 16:29 36.856268 -119.861174 127 2013ft 150kts
25-Feb-19 16:30 36.838448 -119.829794 127 2001ft 146kts
25-Feb-19 16:31 36.825883 -119.807655 128 1810ft 90kts
25-Feb-19 16:32 36.815721 -119.789895 129 1442ft 80kts
25-Feb-19 16:34 36.807287 -119.774803 126 1175ft 80kts
25-Feb-19 16:35 36.798543 -119.759583 126 896ft 80kts
25-Feb-19 16:36 36.788990 -119.742806 128 566ft 76kts
25-Feb-19 16:37 36.779886 -119.726905 124 331ft 28kts
25-Feb-19 16:38 36.778115 -119.725485 215 331ft 2kts
25-Feb-19 16:39 36.776948 -119.726727 282 331ft 9kts
25-Feb-19 16:40 36.777469 -119.729126 279 331ft 11kts
25-Feb-19 16:41 36.777574 -119.729543 302 331ft 0kts
25-Feb-19 16:42 36.777574 -119.729543 302 331ft 0kts
25-Feb-19 16:43 36.777574 -119.729543 302 331ft 0kts

Navigation Log

Ident Type
Flight plan parsing failed, navigation log unavailable